Weber Basin Water
2837 E Hwy 193, Layton
Last Weather Update:1/31/2012
Date
ETo
ETc
Rain
Irrigation
Req
Temp
Max
Temp
Min
Temp
Avg
Avg RH
Avg Wind
Avg Solar
inches
inches
incehs
inches
F
F
F
%
%
watts/m2
12/1/2011 0.10" 0.00" 0.30" -0.30" 37.1° 28.4° 33.6° 40.5% 22.5 MPH 86.0w/m2
12/2/2011 0.03" 0.00" 0.00" 0.00" 36.2° 21.5° 27.1° 61.1% 2.1 MPH 86.6w/m2
12/3/2011 0.05" 0.00" 0.00" 0.00" 35.4° 22.0° 27.8° 53.5% 7.0 MPH 106.9w/m2
12/4/2011 0.02" 0.00" 0.00" 0.00" 28.4° 21.6° 24.0° 64.4% 4.8 MPH 46.6w/m2
12/5/2011 0.03" 0.00" 0.00" 0.00" 26.7° 12.4° 19.0° 47.3% 2.9 MPH 107.9w/m2
12/6/2011 0.02" 0.00" 0.00" 0.00" 30.4° 11.0° 19.1° 55.6% 1.5 MPH 97.2w/m2
12/7/2011 0.03" 0.00" 0.00" 0.00" 36.0° 14.3° 22.7° 57.4% 1.3 MPH 102.4w/m2
12/8/2011 0.03" 0.00" 0.00" 0.00" 37.8° 19.5° 26.5° 63.6% 1.3 MPH 100.2w/m2
12/9/2011 0.03" 0.00" 0.00" 0.00" 40.2° 19.1° 27.6° 68.7% 1.1 MPH 99.1w/m2
12/10/2011 0.03" 0.00" 0.00" 0.00" 41.9° 19.3° 27.8° 62.3% 1.0 MPH 100.9w/m2
12/11/2011 0.03" 0.00" 0.00" 0.00" 43.4° 21.7° 29.0° 63.6% 1.2 MPH 88.2w/m2
12/12/2011 0.02" 0.00" 0.00" 0.00" 43.1° 25.2° 32.8° 52.3% 1.4 MPH 57.4w/m2
12/13/2011 0.01" 0.00" 0.00" 0.00" 31.1° 25.1° 28.6° 87.7% 0.8 MPH 11.9w/m2
12/14/2011 0.01" 0.00" 0.00" 0.00" 29.9° 20.6° 26.6° 93.9% 1.3 MPH 9.9w/m2
12/15/2011 0.01" 0.00" 0.00" 0.00" 28.3° 16.0° 22.4° 90.4% 1.3 MPH 19.5w/m2
12/16/2011 0.01" 0.00" 0.00" 0.00" 30.3° 18.7° 22.9° 83.2% 1.2 MPH 20.8w/m2
12/17/2011 0.01" 0.00" 0.07" -0.07" 31.4° 16.8° 22.4° 87.3% 1.2 MPH 24.0w/m2
12/18/2011 0.01" 0.00" 0.04" -0.04" 31.1° 19.5° 22.3° 89.3% 2.1 MPH 34.0w/m2
12/19/2011 0.01" 0.00" 0.00" 0.00" 25.9° 18.0° 21.6° 87.4% 2.0 MPH 26.4w/m2
12/20/2011 0.01" 0.00" 0.00" 0.00" 28.3° 20.6° 23.5° 85.7% 2.4 MPH 26.1w/m2
12/21/2011 0.02" 0.00" 0.01" -0.01" 32.2° 22.5° 25.7° 76.5% 2.1 MPH 43.2w/m2
12/22/2011 0.04" 0.00" 0.00" 0.00" 32.8° 18.9° 25.5° 54.1% 4.2 MPH 99.3w/m2
12/23/2011 0.03" 0.00" 0.00" 0.00" 33.8° 12.3° 20.9° 57.4% 1.5 MPH 99.8w/m2
12/24/2011 0.03" 0.00" 0.00" 0.00" 35.3° 13.5° 22.4° 58.3% 1.4 MPH 97.3w/m2
12/25/2011 0.03" 0.00" 0.00" 0.00" 40.1° 17.9° 26.2° 55.6% 1.4 MPH 95.9w/m2
12/26/2011 0.03" 0.00" 0.00" 0.00" 39.1° 19.2° 27.1° 58.4% 1.5 MPH 94.1w/m2
12/27/2011 0.02" 0.00" 0.00" 0.00" 39.1° 21.4° 28.4° 57.9% 1.5 MPH 74.1w/m2
12/28/2011 0.03" 0.00" 0.00" 0.00" 43.0° 26.0° 35.6° 45.9% 1.8 MPH 34.5w/m2
12/29/2011 0.04" 0.00" 0.00" 0.00" 50.0° 40.0° 45.6° 44.6% 2.6 MPH 32.8w/m2
12/30/2011 0.06" 0.00" 0.00" 0.00" 55.8° 39.0° 47.7° 40.2% 3.9 MPH 52.1w/m2
12/31/2011 0.04" 0.00" 0.00" 0.00" 47.2° 23.6° 30.8° 45.4% 3.4 MPH 75.8w/m2
Totals: 0.85" 0.00" 0.42" -0.42" 55.8° 11.0° 27.2° 64.2% 2.8 MPH 66.2w/m2